WetterOnline ( https://www.wetteronline.de )

Wetter aktuell Mittelndorf

Aktuelles Wetter: Lichtenhain/Mittelndorf (352m)

6-stündlich | Neueste Meldungen
Ortszeit Temperatur Wetter
Mi, 05.10. 14:00 14.8° C wolkig
Mi, 05.10. 8:00 9.0° C wolkig
Mi, 05.10. 2:00 10.8° C wolkig
Di, 04.10. 20:00 12.0° C leicht bewölkt
Di, 04.10. 14:00 13.9° C wolkig
Di, 04.10. 8:00 10.6° C bedeckt
Di, 04.10. 2:00 11.0° C bedeckt
Mo, 03.10. 20:00 11.4° C leichter Regen
Ortszeit Temperatur Wetter
Mi, 05.10. 17:30 15.6° C wolkig
Mi, 05.10. 17:20 15.6° C wolkig
Mi, 05.10. 17:10 15.8° C bedeckt
Mi, 05.10. 17:00 15.6° C bedeckt
Mi, 05.10. 16:50 15.6° C bedeckt
Mi, 05.10. 16:40 15.6° C bedeckt
Mi, 05.10. 16:30 15.9° C bedeckt
Mi, 05.10. 16:00 15.4° C bedeckt
Mi, 05.10. 15:30 15.3° C bedeckt
Mi, 05.10. 15:00 14.9° C bedeckt
Mi, 05.10. 14:30 15.1° C bedeckt
Ortszeit Relative Feuchte Sichtweite
Mi, 05.10. 14:00 66% 50 km
Mi, 05.10. 8:00 84% 45 km
Mi, 05.10. 2:00 79% 55 km
Di, 04.10. 20:00 80% 60 km
Di, 04.10. 14:00 71% 55 km
Di, 04.10. 8:00 92% 30 km
Di, 04.10. 2:00 93% 35 km
Mo, 03.10. 20:00 83% 11 km
Ortszeit Relative Feuchte Sichtweite
Mi, 05.10. 17:30 70% 50 km
Mi, 05.10. 17:20 70% -
Mi, 05.10. 17:10 70% -
Mi, 05.10. 17:00 69% 50 km
Mi, 05.10. 16:50 69% -
Mi, 05.10. 16:40 69% -
Mi, 05.10. 16:30 68% 45 km
Mi, 05.10. 16:00 70% 45 km
Mi, 05.10. 15:30 69% 45 km
Mi, 05.10. 15:00 69% 60 km
Mi, 05.10. 14:30 67% 50 km
Ortszeit Niederschlagsmenge Niederschlagsart
Mi, 05.10. 14:00 0.0 l/m2 in 6 Std. -
Mi, 05.10. 8:00 0.0 l/m2 in 12 Std. -
Mi, 05.10. 2:00 0.0 l/m2 in 6 Std. -
Di, 04.10. 20:00 0.1 l/m2 in 12 Std. -
Di, 04.10. 14:00 0.1 l/m2 in 6 Std. Regen
Di, 04.10. 8:00 0.1 l/m2 in 12 Std. Regen
Di, 04.10. 2:00 0.1 l/m2 in 6 Std. Regen
Mo, 03.10. 20:00 0.2 l/m2 in 12 Std. Regen
Ortszeit Niederschlagsmenge Niederschlagsart
Mi, 05.10. 17:30 0.0 l/m2 in 1 Std. -
Mi, 05.10. 17:20 keine Meldung -
Mi, 05.10. 17:10 keine Meldung -
Mi, 05.10. 17:00 0.0 l/m2 in 1 Std. -
Mi, 05.10. 16:50 keine Meldung -
Mi, 05.10. 16:40 keine Meldung -
Mi, 05.10. 16:30 0.0 l/m2 in 1 Std. -
Mi, 05.10. 16:00 0.0 l/m2 in 1 Std. -
Mi, 05.10. 15:30 0.0 l/m2 in 1 Std. -
Mi, 05.10. 15:00 0.0 l/m2 in 1 Std. -
Mi, 05.10. 14:30 0.0 l/m2 in 1 Std. -
Ortszeit Stärke Spitze Richtung
km/h Bft. km/h Grad Sektor
Mi, 05.10. 14:00 31 5 46 160° S
Mi, 05.10. 8:00 15 3 33 130° SO
Mi, 05.10. 2:00 9 2 22 140° SO
Di, 04.10. 20:00 11 2 22 130° SO
Di, 04.10. 14:00 13 3 28 260° W
Di, 04.10. 8:00 14 3 32 310° NW
Di, 04.10. 2:00 14 3 40 300° NW
Mo, 03.10. 20:00 22 4 48 300° NW
Ortszeit Stärke Spitze Richtung
km/h Bft. km/h Grad Sektor
Mi, 05.10. 17:30 29 5 47 170° S
Mi, 05.10. 17:20 29 5 - 170° S
Mi, 05.10. 17:10 31 5 - 170° S
Mi, 05.10. 17:00 33 5 48 170° S
Mi, 05.10. 16:50 33 5 - 170° S
Mi, 05.10. 16:40 33 5 - 170° S
Mi, 05.10. 16:30 29 5 47 180° S
Mi, 05.10. 16:00 26 4 43 170° S
Mi, 05.10. 15:30 26 4 39 170° S
Mi, 05.10. 15:00 29 5 47 170° S
Mi, 05.10. 14:30 26 4 48 170° S
Ortszeit Untergrenze Bedeckung Gattung
total tief tief mittel hoch
Mi, 05.10. 14:00 5400 m 8/8 8/8 - - -
Mi, 05.10. 8:00 9000 m 8/8 0/8 - - -
Mi, 05.10. 2:00 9000 m 8/8 0/8 - - -
Di, 04.10. 20:00 9000 m 5/8 0/8 - - -
Di, 04.10. 14:00 630 m 7/8 2/8 - - -
Di, 04.10. 8:00 240 m 8/8 8/8 - - -
Di, 04.10. 2:00 330 m 8/8 8/8 - - -
Mo, 03.10. 20:00 570 m 8/8 8/8 - - -
Ortszeit Bedeckungsgrad in Achtel und Wolkenuntergrenze
Mi, 05.10. 17:30 2(6900m) 8(8100m) 8(9000m)
Mi, 05.10. 17:20 2(6900m) 8(8100m) 8(9000m)
Mi, 05.10. 17:10 8
Mi, 05.10. 17:00 8(6600m) 8(8100m)
Mi, 05.10. 16:50 8(6600m) 8(8100m)
Mi, 05.10. 16:40 8
Mi, 05.10. 16:30 5(6300m) 8(6900m)
Mi, 05.10. 16:00 8(5700m)
Mi, 05.10. 15:30 8(5400m)
Mi, 05.10. 15:00 8(5700m) 8(7200m) 8(7800m)
Mi, 05.10. 14:30 8(6000m) 8(6900m) 8(8400m)
Ortszeit Luftdruck NN (hPa) Tendenz (hPa in 3 Std.)
Mi, 05.10. 14:00 1020 - 1,0
Mi, 05.10. 8:00 1023 + 0,4
Mi, 05.10. 2:00 1023 - 1,1
Di, 04.10. 20:00 1023 - 0,6
Di, 04.10. 14:00 1023 + 0,1
Di, 04.10. 8:00 1022 + 0,4
Di, 04.10. 2:00 1022 - 0,2
Mo, 03.10. 20:00 1023 0,0
Ortszeit Luftdruck NN (hPa) Tendenz (hPa in 3 Std.)
Mi, 05.10. 17:30 1019 - 0,8
Mi, 05.10. 17:20 1019 keine Meldung
Mi, 05.10. 17:10 1019 keine Meldung
Mi, 05.10. 17:00 1019 - 0,9
Mi, 05.10. 16:50 1019 keine Meldung
Mi, 05.10. 16:40 1019 keine Meldung
Mi, 05.10. 16:30 1019 - 1,0
Mi, 05.10. 16:00 1020 - 1,1
Mi, 05.10. 15:30 1020 - 0,9
Mi, 05.10. 15:00 1020 - 0,9
Mi, 05.10. 14:30 1020 - 1,0
Ortszeit Schneehöhe (cm)
Mi, 05.10. 14:00 0
Mi, 05.10. 8:00 0
Mi, 05.10. 2:00 0
Di, 04.10. 20:00 0
Di, 04.10. 14:00 0
Di, 04.10. 8:00 0
Di, 04.10. 2:00 0
Mo, 03.10. 20:00 0
Ortszeit Schneehöhe (cm)
Mi, 05.10. 17:30 0
Mi, 05.10. 17:20 0
Mi, 05.10. 17:10 0
Mi, 05.10. 17:00 0
Mi, 05.10. 16:50 0
Mi, 05.10. 16:40 0
Mi, 05.10. 16:30 0
Mi, 05.10. 16:00 0
Mi, 05.10. 15:30 0
Mi, 05.10. 15:00 0
Mi, 05.10. 14:30 0
Link zu dieser Seite / Seite empfehlen

Das Wetter in ...